createdAt,value
2017-12-24T00:01:21.327Z,101431.83
2017-12-24T00:03:48.849Z,101433.11
2017-12-24T00:06:16.362Z,101441.59
2017-12-24T00:08:43.843Z,101443.31
2017-12-24T00:11:11.344Z,101436.50
2017-12-24T00:13:38.821Z,101430.53
2017-12-24T00:16:06.329Z,101428.83
2017-12-24T00:18:34.809Z,101433.09
2017-12-24T00:21:02.325Z,101427.97
2017-12-24T00:23:29.790Z,101430.95
2017-12-24T00:25:57.276Z,101437.34
2017-12-24T00:28:24.765Z,101438.63
2017-12-24T00:30:52.260Z,101428.38
2017-12-24T00:33:19.730Z,101433.09
2017-12-24T00:35:47.198Z,101432.20
2017-12-24T00:38:14.657Z,101433.91
2017-12-24T00:40:42.127Z,101445.02
2017-12-24T00:43:09.608Z,101445.00
2017-12-24T00:45:37.103Z,101433.51
2017-12-24T00:48:05.452Z,101436.51
2017-12-24T00:50:32.936Z,101436.94
2017-12-24T00:53:00.423Z,101433.11
2017-12-24T00:55:27.904Z,101432.25
2017-12-24T00:57:55.369Z,101430.97
2017-12-24T01:00:22.837Z,101433.95
2017-12-24T01:02:51.027Z,101436.06
2017-12-24T01:05:18.521Z,101428.40
2017-12-24T01:07:45.981Z,101427.14
2017-12-24T01:10:14.376Z,101435.23
2017-12-24T01:12:41.855Z,101423.30
2017-12-24T01:15:09.329Z,101435.66
2017-12-24T01:17:36.800Z,101424.15
2017-12-24T01:20:04.285Z,101418.62
2017-12-24T01:22:31.768Z,101416.92
2017-12-24T01:24:59.278Z,101403.70
2017-12-24T01:27:26.756Z,101412.67
2017-12-24T01:29:54.749Z,101407.98
2017-12-24T01:32:22.217Z,101419.92
2017-12-24T01:34:50.703Z,101423.31
2017-12-24T01:37:18.184Z,101418.20
2017-12-24T01:39:45.661Z,101411.82
2017-12-24T01:42:13.152Z,101396.91
2017-12-24T01:44:40.625Z,101390.52
2017-12-24T01:47:08.127Z,101391.36
2017-12-24T01:49:35.594Z,101393.91
2017-12-24T01:52:03.076Z,101395.64
2017-12-24T01:54:30.572Z,101387.95
2017-12-24T01:56:58.848Z,101397.78
2017-12-24T01:59:26.339Z,101387.09
2017-12-24T02:01:53.802Z,101391.38
2017-12-24T02:04:21.265Z,101387.55
2017-12-24T02:06:48.754Z,101391.39
2017-12-24T02:09:16.245Z,101381.56
2017-12-24T02:11:43.740Z,101386.69
2017-12-24T02:14:11.217Z,101386.27
2017-12-24T02:16:38.714Z,101369.64
2017-12-24T02:19:06.179Z,101371.38
2017-12-24T02:21:33.664Z,101380.31
2017-12-24T02:24:01.125Z,101385.42
2017-12-24T02:26:28.632Z,101382.42
2017-12-24T02:28:56.127Z,101387.11
2017-12-24T02:31:23.612Z,101381.16
2017-12-24T02:33:51.086Z,101385.42
2017-12-24T02:36:18.580Z,101375.20
2017-12-24T02:38:46.719Z,101373.47
2017-12-24T02:41:14.196Z,101376.03
2017-12-24T02:43:41.685Z,101373.49
2017-12-24T02:46:10.014Z,101373.05
2017-12-24T02:48:37.503Z,101372.65
2017-12-24T02:51:04.992Z,101377.77
2017-12-24T02:53:32.530Z,101368.37
2017-12-24T02:56:00.004Z,101378.19
2017-12-24T02:58:27.506Z,101388.84
2017-12-24T03:00:54.991Z,101392.67
2017-12-24T03:03:22.482Z,101403.33
2017-12-24T03:05:49.941Z,101389.69
2017-12-24T03:08:17.443Z,101394.38
2017-12-24T03:10:44.910Z,101390.98
2017-12-24T03:13:12.396Z,101389.69
2017-12-24T03:15:39.865Z,101380.31
2017-12-24T03:18:07.349Z,101376.05
2017-12-24T03:20:34.822Z,101380.30
2017-12-24T03:23:02.314Z,101373.92
2017-12-24T03:25:29.786Z,101377.77
2017-12-24T03:27:57.258Z,101372.65
2017-12-24T03:30:24.732Z,101367.52
2017-12-24T03:32:52.235Z,101368.38
2017-12-24T03:35:19.706Z,101367.95
2017-12-24T03:37:47.174Z,101371.77
2017-12-24T03:40:14.678Z,101369.23
2017-12-24T03:42:42.164Z,101361.98
2017-12-24T03:45:09.691Z,101352.62
2017-12-24T03:47:37.200Z,101349.63
2017-12-24T03:50:04.700Z,101353.47
2017-12-24T03:52:32.198Z,101337.67
2017-12-24T03:54:59.696Z,101347.48
2017-12-24T03:57:27.583Z,101335.14
2017-12-24T03:59:55.055Z,101335.14
2017-12-24T04:02:22.544Z,101333.01
2017-12-24T04:04:50.001Z,101334.27
2017-12-24T04:07:17.531Z,101334.71
2017-12-24T04:09:45.028Z,101345.37
2017-12-24T04:12:12.492Z,101334.27
2017-12-24T04:14:39.958Z,101348.78
2017-12-24T04:17:07.418Z,101345.78
2017-12-24T04:19:34.880Z,101359.42
2017-12-24T04:22:02.356Z,101357.72
2017-12-24T04:24:29.856Z,101363.25
2017-12-24T04:26:57.349Z,101362.42
2017-12-24T04:29:24.833Z,101370.95
2017-12-24T04:31:52.297Z,101366.25
2017-12-24T04:34:19.779Z,101360.27
2017-12-24T04:36:47.277Z,101359.01
2017-12-24T04:39:15.153Z,101361.98
2017-12-24T04:41:42.692Z,101359.00
2017-12-24T04:44:10.133Z,101352.59
2017-12-24T04:46:37.628Z,101353.89
2017-12-24T04:49:05.982Z,101356.01
2017-12-24T04:51:33.555Z,101348.78
2017-12-24T04:54:01.040Z,101343.21
2017-12-24T04:56:28.509Z,101348.78
2017-12-24T04:58:55.979Z,101338.13
2017-12-24T05:01:24.056Z,101337.27
2017-12-24T05:03:51.534Z,101340.26
2017-12-24T05:06:19.016Z,101337.27
2017-12-24T05:08:46.497Z,101332.58
2017-12-24T05:11:13.982Z,101335.14
2017-12-24T05:13:41.486Z,101325.33
2017-12-24T05:16:08.969Z,101321.50
2017-12-24T05:18:36.464Z,101321.92
2017-12-24T05:21:04.737Z,101324.47
2017-12-24T05:23:32.235Z,101319.36
2017-12-24T05:25:59.712Z,101314.69
2017-12-24T05:28:27.203Z,101313.83
2017-12-24T05:30:54.723Z,101307.02
2017-12-24T05:33:22.216Z,101293.81
2017-12-24T05:35:49.724Z,101292.09
2017-12-24T05:38:17.212Z,101290.40
2017-12-24T05:40:44.683Z,101295.94
2017-12-24T05:43:12.733Z,101296.34
2017-12-24T05:45:40.228Z,101305.71
2017-12-24T05:48:07.708Z,101307.86
2017-12-24T05:50:35.211Z,101308.27
2017-12-24T05:53:02.670Z,101312.55
2017-12-24T05:55:30.143Z,101293.80
2017-12-24T05:57:57.613Z,101301.87
2017-12-24T06:00:25.090Z,101305.72
2017-12-24T06:02:52.582Z,101296.36
2017-12-24T06:05:20.054Z,101304.45
2017-12-24T06:07:47.523Z,101306.56
2017-12-24T06:10:14.989Z,101313.82
2017-12-24T06:12:42.468Z,101312.53
2017-12-24T06:15:10.011Z,101309.58
2017-12-24T06:17:37.500Z,101309.13
2017-12-24T06:20:04.992Z,101309.12
2017-12-24T06:22:32.457Z,101306.56
2017-12-24T06:24:59.913Z,101289.95
2017-12-24T06:27:27.410Z,101304.87
2017-12-24T06:29:54.886Z,101307.44
2017-12-24T06:32:22.385Z,101299.33
2017-12-24T06:34:49.851Z,101301.88
2017-12-24T06:37:17.325Z,101296.34
2017-12-24T06:39:44.820Z,101294.23
2017-12-24T06:42:12.294Z,101301.03
2017-12-24T06:44:39.767Z,101293.80
2017-12-24T06:47:07.252Z,101276.34
2017-12-24T06:49:34.750Z,101289.10
2017-12-24T06:52:02.229Z,101280.17
2017-12-24T06:54:29.700Z,101295.08
2017-12-24T06:56:57.193Z,101289.95
2017-12-24T06:59:24.704Z,101288.26
2017-12-24T07:01:52.200Z,101284.44
2017-12-24T07:04:19.691Z,101285.29
2017-12-24T07:06:47.208Z,101284.44
2017-12-24T07:09:14.709Z,101281.86
2017-12-24T07:11:42.174Z,101279.72
2017-12-24T07:14:09.641Z,101274.61
2017-12-24T07:16:37.120Z,101270.78
2017-12-24T07:19:04.598Z,101270.36
2017-12-24T07:21:32.100Z,101267.80
2017-12-24T07:23:59.578Z,101271.22
2017-12-24T07:26:27.064Z,101258.84
2017-12-24T07:28:54.543Z,101259.30
2017-12-24T07:31:22.024Z,101264.83
2017-12-24T07:33:49.566Z,101265.25
2017-12-24T07:36:17.065Z,101262.27
2017-12-24T07:38:44.548Z,101267.40
2017-12-24T07:41:12.026Z,101266.54
2017-12-24T07:43:40.350Z,101271.63
2017-12-24T07:46:08.782Z,101266.12
2017-12-24T07:48:36.270Z,101262.68
2017-12-24T07:51:03.771Z,101275.06
2017-12-24T07:53:31.248Z,101262.26
2017-12-24T07:55:58.746Z,101269.09
2017-12-24T07:58:26.255Z,101271.22
2017-12-24T08:00:54.093Z,101272.49
2017-12-24T08:03:21.569Z,101275.91
2017-12-24T08:05:49.073Z,101277.17
2017-12-24T08:08:16.562Z,101290.80
2017-12-24T08:10:44.061Z,101270.37
2017-12-24T08:13:12.426Z,101278.02
2017-12-24T08:15:39.940Z,101280.17
2017-12-24T08:18:07.451Z,101281.02
2017-12-24T08:20:34.952Z,101278.45
2017-12-24T08:23:02.431Z,101280.59
2017-12-24T08:25:29.894Z,101279.73
2017-12-24T08:27:57.417Z,101289.52
2017-12-24T08:30:24.888Z,101297.63
2017-12-24T08:32:52.371Z,101285.71
2017-12-24T08:35:19.866Z,101293.38
2017-12-24T08:37:47.344Z,101298.91
2017-12-24T08:40:14.809Z,101298.91
2017-12-24T08:42:42.299Z,101297.19
2017-12-24T08:45:09.773Z,101307.84
2017-12-24T08:47:37.242Z,101302.30
2017-12-24T08:50:04.717Z,101297.20
2017-12-24T08:52:32.193Z,101294.23
2017-12-24T08:54:59.773Z,101296.36
2017-12-24T08:57:27.228Z,101292.09
2017-12-24T08:59:54.690Z,101295.09
2017-12-24T09:02:22.177Z,101295.08
2017-12-24T09:04:49.733Z,101295.51
2017-12-24T09:07:17.217Z,101298.07
2017-12-24T09:09:44.686Z,101300.63
2017-12-24T09:12:12.169Z,101299.34
2017-12-24T09:14:39.642Z,101295.50
2017-12-24T09:17:07.137Z,101298.47
2017-12-24T09:19:34.655Z,101292.52
2017-12-24T09:22:02.146Z,101283.56
2017-12-24T09:24:30.216Z,101280.16
2017-12-24T09:26:58.458Z,101283.57
2017-12-24T09:29:25.922Z,101289.12
2017-12-24T09:31:53.405Z,101272.48
2017-12-24T09:34:20.957Z,101278.88
2017-12-24T09:36:48.441Z,101273.76
2017-12-24T09:39:15.909Z,101268.66
2017-12-24T09:41:43.477Z,101266.52
2017-12-24T09:44:10.972Z,101270.37
2017-12-24T09:46:39.093Z,101271.63
2017-12-24T09:49:08.284Z,101259.27
2017-12-24T09:51:35.741Z,101269.49
2017-12-24T09:54:03.202Z,101269.51
2017-12-24T09:56:30.685Z,101263.97
2017-12-24T09:58:58.169Z,101259.70
2017-12-24T10:01:26.581Z,101260.14
2017-12-24T10:03:54.054Z,101264.39
2017-12-24T10:06:21.522Z,101259.70
2017-12-24T10:08:48.978Z,101262.25
2017-12-24T10:11:16.449Z,101256.30
2017-12-24T10:13:51.410Z,101251.60
2017-12-24T10:16:18.896Z,101255.44
2017-12-24T10:18:46.376Z,101249.91
2017-12-24T10:21:13.864Z,101258.84
2017-12-24T10:23:41.365Z,101250.73
2017-12-24T10:26:08.838Z,101257.98
2017-12-24T10:28:36.311Z,101255.03
2017-12-24T10:31:03.786Z,101255.02
2017-12-24T10:33:31.283Z,101243.92
2017-12-24T10:35:58.789Z,101236.67
2017-12-24T10:38:26.258Z,101234.54
2017-12-24T10:40:53.739Z,101232.43
2017-12-24T10:43:21.777Z,101227.71
2017-12-24T10:45:49.251Z,101230.73
2017-12-24T10:48:16.746Z,101231.16
2017-12-24T10:50:44.203Z,101232.42
2017-12-24T10:53:11.744Z,101224.76
2017-12-24T10:55:39.968Z,101223.05
2017-12-24T10:58:07.429Z,101218.80
2017-12-24T11:00:35.239Z,101225.62
2017-12-24T11:03:02.730Z,101217.09
2017-12-24T11:05:30.213Z,101221.34
2017-12-24T11:07:58.495Z,101223.91
2017-12-24T11:10:25.973Z,101219.64
2017-12-24T11:12:53.438Z,101224.75
2017-12-24T11:15:20.922Z,101221.33
2017-12-24T11:17:48.417Z,101218.37
2017-12-24T11:20:15.891Z,101218.80
2017-12-24T11:22:43.368Z,101206.86
2017-12-24T11:25:10.845Z,101197.05
2017-12-24T11:27:38.310Z,101194.92
2017-12-24T11:30:05.808Z,101187.27
2017-12-24T11:32:33.293Z,101186.81
2017-12-24T11:35:00.793Z,101179.99
2017-12-24T11:37:28.268Z,101181.28
2017-12-24T11:39:55.751Z,101169.77
2017-12-24T11:42:23.219Z,101176.60
2017-12-24T11:44:50.717Z,101175.30
2017-12-24T11:47:18.192Z,101172.34
2017-12-24T11:49:45.678Z,101170.19
2017-12-24T11:52:13.161Z,101162.97
2017-12-24T11:54:40.650Z,101155.72
2017-12-24T11:57:08.105Z,101153.99
2017-12-24T11:59:35.561Z,101156.58
2017-12-24T12:02:03.031Z,101158.30
2017-12-24T12:04:30.490Z,101158.27
2017-12-24T12:06:57.958Z,101142.08
2017-12-24T12:09:25.444Z,101150.20
2017-12-24T12:11:52.912Z,101157.02
2017-12-24T12:14:21.356Z,101164.27
2017-12-24T12:16:48.835Z,101158.28
2017-12-24T12:19:16.307Z,101149.79
2017-12-24T12:21:43.792Z,101154.05
2017-12-24T12:24:11.287Z,101142.13
2017-12-24T12:26:38.762Z,101145.12
2017-12-24T12:29:06.245Z,101142.56
2017-12-24T12:31:33.698Z,101122.55
2017-12-24T12:34:01.173Z,101127.66
2017-12-24T12:36:28.643Z,101122.95
2017-12-24T12:38:56.120Z,101122.97
2017-12-24T12:41:23.582Z,101127.63
2017-12-24T12:43:51.067Z,101115.30
2017-12-24T12:46:18.553Z,101111.91
2017-12-24T12:48:46.034Z,101112.33
2017-12-24T12:51:13.497Z,101118.69
2017-12-24T12:53:41.234Z,101111.45
2017-12-24T12:56:08.728Z,101111.45
2017-12-24T12:58:36.197Z,101093.55
2017-12-24T13:01:03.690Z,101094.42
2017-12-24T13:03:31.172Z,101105.48
2017-12-24T13:05:58.683Z,101099.55
2017-12-24T13:08:26.152Z,101100.38
2017-12-24T13:10:53.636Z,101098.68
2017-12-24T13:13:21.110Z,101101.23
2017-12-24T13:15:48.926Z,101088.45
2017-12-24T13:18:16.402Z,101086.31
2017-12-24T13:20:43.888Z,101063.73
2017-12-24T13:23:11.360Z,101070.97
2017-12-24T13:25:38.848Z,101069.30
2017-12-24T13:28:06.324Z,101070.99
2017-12-24T13:30:33.794Z,101068.88
2017-12-24T13:33:01.274Z,101065.47
2017-12-24T13:35:28.948Z,101057.37
2017-12-24T13:37:56.425Z,101055.27
2017-12-24T13:40:23.918Z,101056.09
2017-12-24T13:42:51.416Z,101057.81
2017-12-24T13:45:18.928Z,101058.68
2017-12-24T13:47:46.408Z,101066.33
2017-12-24T13:50:13.885Z,101057.37
2017-12-24T13:52:41.338Z,101058.23
2017-12-24T13:55:08.809Z,101048.88
2017-12-24T13:57:36.301Z,101051.80
2017-12-24T14:00:03.769Z,101057.34
2017-12-24T14:02:31.261Z,101055.23
2017-12-24T14:04:58.766Z,101051.39
2017-12-24T14:07:26.226Z,101050.52
2017-12-24T14:09:53.686Z,101039.47
2017-12-24T14:12:21.200Z,101044.98
2017-12-24T14:14:48.773Z,101044.97
2017-12-24T14:17:16.198Z,101044.13
2017-12-24T14:19:43.692Z,101037.33
2017-12-24T14:22:11.171Z,101044.11
2017-12-24T14:24:38.637Z,101033.48
2017-12-24T14:27:06.176Z,101033.47
2017-12-24T14:29:33.612Z,101030.05
2017-12-24T14:32:01.092Z,101020.70
2017-12-24T14:34:28.571Z,101030.09
2017-12-24T14:36:56.030Z,101028.36
2017-12-24T14:39:23.487Z,101029.20
2017-12-24T14:41:51.182Z,101020.70
2017-12-24T14:44:18.659Z,101014.30
2017-12-24T14:46:46.125Z,101019.00
2017-12-24T14:49:13.604Z,101013.88
2017-12-24T14:51:41.082Z,101012.19
2017-12-24T14:54:08.564Z,101007.94
2017-12-24T14:56:36.896Z,101006.23
2017-12-24T14:59:04.354Z,101001.95
2017-12-24T15:01:31.806Z,101008.77
2017-12-24T15:03:59.278Z,101006.63
2017-12-24T15:06:26.730Z,101011.73
2017-12-24T15:08:54.186Z,101004.94
2017-12-24T15:11:21.678Z,101002.40
2017-12-24T15:13:49.134Z,101005.77
2017-12-24T15:16:16.632Z,101004.52
2017-12-24T15:18:44.093Z,100997.24
2017-12-24T15:21:11.582Z,100997.69
2017-12-24T15:23:39.073Z,100998.95
2017-12-24T15:26:06.556Z,100989.15
2017-12-24T15:28:34.014Z,100988.31
2017-12-24T15:31:01.468Z,100988.31
2017-12-24T15:33:28.942Z,100987.02
2017-12-24T15:35:56.424Z,100991.29
2017-12-24T15:38:23.878Z,100983.60
2017-12-24T15:40:54.204Z,100986.58
2017-12-24T15:43:21.693Z,100994.28
2017-12-24T15:45:49.185Z,100987.86
2017-12-24T15:48:16.924Z,100993.39
2017-12-24T15:50:44.405Z,100990.41
2017-12-24T15:53:11.904Z,100984.45
2017-12-24T15:55:39.391Z,100984.88
2017-12-24T15:58:06.882Z,100986.61
2017-12-24T16:00:34.338Z,100984.46
2017-12-24T16:03:01.822Z,100978.94
2017-12-24T16:05:29.299Z,100986.16
2017-12-24T16:07:56.782Z,100989.13
2017-12-24T16:10:24.276Z,100987.00
2017-12-24T16:12:51.749Z,100991.27
2017-12-24T16:15:19.218Z,100978.49
2017-12-24T16:17:46.687Z,100993.37
2017-12-24T16:20:14.154Z,100982.73
2017-12-24T16:22:41.642Z,100986.16
2017-12-24T16:25:09.108Z,100983.61
2017-12-24T16:27:37.065Z,100986.59
2017-12-24T16:30:04.529Z,100992.10
2017-12-24T16:32:31.986Z,100994.25
2017-12-24T16:34:59.477Z,100996.81
2017-12-24T16:37:26.938Z,100990.42
2017-12-24T16:39:54.426Z,100996.80
2017-12-24T16:42:21.912Z,100984.46
2017-12-24T16:44:49.413Z,100989.56
2017-12-24T16:47:16.913Z,100995.11
2017-12-24T16:49:44.545Z,100988.28
2017-12-24T16:52:12.048Z,100989.13
2017-12-24T16:54:39.522Z,100984.47
2017-12-24T16:57:07.003Z,100976.36
2017-12-24T16:59:34.484Z,100978.09
2017-12-24T17:02:02.045Z,100974.64
2017-12-24T17:04:29.527Z,100968.23
2017-12-24T17:06:56.988Z,100970.39
2017-12-24T17:09:24.493Z,100972.49
2017-12-24T17:11:51.976Z,100969.05
2017-12-24T17:14:19.460Z,100966.09
2017-12-24T17:16:47.900Z,100983.56
2017-12-24T17:19:15.381Z,100981.84
2017-12-24T17:21:43.619Z,100988.68
2017-12-24T17:24:11.089Z,100991.20
2017-12-24T17:26:38.569Z,100978.86
2017-12-24T17:29:06.088Z,100980.10
2017-12-24T17:31:33.582Z,100969.89
2017-12-24T17:34:01.088Z,100976.28
2017-12-24T17:36:28.557Z,100980.95
2017-12-24T17:38:56.038Z,100997.97
2017-12-24T17:41:23.513Z,100992.42
2017-12-24T17:43:50.983Z,100993.70
2017-12-24T17:46:18.488Z,100981.30
2017-12-24T17:48:45.966Z,100986.83
2017-12-24T17:51:13.484Z,100991.11
2017-12-24T17:53:40.974Z,100979.16
2017-12-24T17:56:08.464Z,100993.27
2017-12-24T17:58:35.947Z,100988.97
2017-12-24T18:01:03.805Z,100987.69
2017-12-24T18:03:31.278Z,100989.36
2017-12-24T18:05:58.777Z,100978.34
2017-12-24T18:08:26.272Z,100978.77
2017-12-24T18:10:53.742Z,100977.45
2017-12-24T18:13:21.235Z,100974.89
2017-12-24T18:15:48.728Z,100973.19
2017-12-24T18:18:16.234Z,100957.02
2017-12-24T18:20:43.721Z,100969.78
2017-12-24T18:23:11.208Z,100968.48
2017-12-24T18:25:38.685Z,100955.27
2017-12-24T18:28:06.173Z,100967.62
2017-12-24T18:30:33.664Z,100960.81
2017-12-24T18:33:01.146Z,100956.98
2017-12-24T18:35:28.622Z,100954.45
2017-12-24T18:37:56.109Z,100955.27
2017-12-24T18:40:23.590Z,100954.42
2017-12-24T18:42:51.075Z,100939.53
2017-12-24T18:45:18.580Z,100929.70
2017-12-24T18:47:46.066Z,100930.95
2017-12-24T18:50:13.566Z,100909.69
2017-12-24T18:52:41.060Z,100919.44
2017-12-24T18:55:08.561Z,100927.97
2017-12-24T18:57:36.059Z,100927.15
2017-12-24T19:00:03.581Z,100923.75
2017-12-24T19:02:31.050Z,100933.92
2017-12-24T19:04:58.564Z,100938.23
2017-12-24T19:07:26.086Z,100937.39
2017-12-24T19:09:53.577Z,100945.89
2017-12-24T19:12:21.061Z,100928.86
2017-12-24T19:14:48.560Z,100925.85
2017-12-24T19:17:16.047Z,100928.86
2017-12-24T19:19:43.553Z,100916.92
2017-12-24T19:22:11.076Z,100927.57
2017-12-24T19:24:38.563Z,100920.35
2017-12-24T19:27:06.047Z,100927.59
2017-12-24T19:29:33.540Z,100931.82
2017-12-24T19:32:01.014Z,100932.69
2017-12-24T19:34:28.482Z,100943.76
2017-12-24T19:36:55.981Z,100933.97
2017-12-24T19:39:23.488Z,100930.55
2017-12-24T19:41:50.962Z,100935.66
2017-12-24T19:44:18.464Z,100929.29
2017-12-24T19:46:45.950Z,100931.42
2017-12-24T19:49:13.464Z,100936.48
2017-12-24T19:51:40.957Z,100924.59
2017-12-24T19:54:08.696Z,100920.31
2017-12-24T19:56:36.170Z,100932.66
2017-12-24T19:59:03.672Z,100928.84
2017-12-24T20:01:31.160Z,100925.39
2017-12-24T20:03:58.650Z,100931.80
2017-12-24T20:06:26.144Z,100941.19
2017-12-24T20:08:53.617Z,100936.09
2017-12-24T20:11:21.088Z,100936.04
2017-12-24T20:13:48.558Z,100944.16
2017-12-24T20:16:16.043Z,100948.39
2017-12-24T20:18:43.518Z,100948.43
2017-12-24T20:21:11.008Z,100956.98
2017-12-24T20:23:38.496Z,100953.14
2017-12-24T20:26:05.993Z,100949.73
2017-12-24T20:28:33.472Z,100956.58
2017-12-24T20:31:00.948Z,100944.20
2017-12-24T20:33:28.461Z,100954.84
2017-12-24T20:35:55.957Z,100964.69
2017-12-24T20:38:23.429Z,100953.60
2017-12-24T20:40:51.141Z,100955.73
2017-12-24T20:43:18.617Z,100959.16
2017-12-24T20:45:46.109Z,100960.44
2017-12-24T20:48:14.374Z,100962.55
2017-12-24T20:50:42.679Z,100950.20
2017-12-24T20:53:10.180Z,100953.23
2017-12-24T20:55:37.675Z,100950.25
2017-12-24T20:58:05.155Z,100960.91
2017-12-24T21:00:32.650Z,100959.26
2017-12-24T21:03:00.109Z,100959.69
2017-12-24T21:05:27.584Z,100952.90
2017-12-24T21:07:55.083Z,100961.39
2017-12-24T21:10:22.570Z,100955.84
2017-12-24T21:12:50.044Z,100961.78
2017-12-24T21:15:17.528Z,100957.11
2017-12-24T21:17:45.011Z,100957.12
2017-12-24T21:20:13.219Z,100959.26
2017-12-24T21:22:40.700Z,100954.16
2017-12-24T21:25:08.178Z,100957.55
2017-12-24T21:27:35.652Z,100958.84
2017-12-24T21:30:03.154Z,100953.69
2017-12-24T21:32:30.644Z,100954.98
2017-12-24T21:34:58.125Z,100956.70
2017-12-24T21:37:25.598Z,100952.84
2017-12-24T21:39:53.088Z,100963.11
2017-12-24T21:42:20.565Z,100961.39
2017-12-24T21:44:48.027Z,100954.56
2017-12-24T21:47:15.577Z,100963.50
2017-12-24T21:49:43.037Z,100960.09
2017-12-24T21:52:10.506Z,100966.93
2017-12-24T21:54:39.078Z,100964.81
2017-12-24T21:57:06.533Z,100960.53
2017-12-24T21:59:34.004Z,100952.87
2017-12-24T22:02:01.489Z,100962.25
2017-12-24T22:04:28.988Z,100955.03
2017-12-24T22:06:56.454Z,100972.45
2017-12-24T22:09:23.914Z,100971.22
2017-12-24T22:11:51.376Z,100966.12
2017-12-24T22:14:18.834Z,100981.84
2017-12-24T22:16:46.327Z,100980.13
2017-12-24T22:19:13.837Z,100983.97
2017-12-24T22:21:41.368Z,100989.53
2017-12-24T22:24:08.868Z,100985.28
2017-12-24T22:26:36.378Z,100990.36
2017-12-24T22:29:03.845Z,100988.23
2017-12-24T22:31:31.331Z,100999.72
2017-12-24T22:33:58.809Z,100995.91
2017-12-24T22:36:26.280Z,101000.59
2017-12-24T22:38:53.755Z,101004.84
2017-12-24T22:41:21.245Z,100990.36
2017-12-24T22:43:48.724Z,101004.41
2017-12-24T22:46:16.183Z,100993.36
2017-12-24T22:48:43.637Z,101013.36
2017-12-24T22:51:11.096Z,101015.91
2017-12-24T22:53:38.568Z,101005.73
2017-12-24T22:56:06.045Z,101005.72
2017-12-24T22:58:33.485Z,101001.88
2017-12-24T23:01:01.419Z,101014.72
2017-12-24T23:03:28.876Z,101012.16
2017-12-24T23:05:56.341Z,101003.23
2017-12-24T23:08:23.823Z,101004.94
2017-12-24T23:10:51.281Z,101000.28
2017-12-24T23:13:18.760Z,101008.36
2017-12-24T23:15:46.238Z,101001.95
2017-12-24T23:18:13.698Z,101002.02
2017-12-24T23:20:41.161Z,100993.08
2017-12-24T23:23:08.657Z,100995.20
2017-12-24T23:25:36.186Z,100991.83
2017-12-24T23:28:03.702Z,101003.28
2017-12-24T23:30:31.605Z,100999.92
2017-12-24T23:32:59.066Z,100992.65
2017-12-24T23:35:26.554Z,100986.70
2017-12-24T23:37:54.014Z,100990.97
2017-12-24T23:40:21.479Z,101000.75
2017-12-24T23:42:48.959Z,101001.59
2017-12-24T23:45:16.453Z,100987.98
2017-12-24T23:47:43.914Z,100991.39
2017-12-24T23:50:11.401Z,100992.66
2017-12-24T23:52:38.872Z,100994.34
2017-12-24T23:55:06.378Z,100996.06
2017-12-24T23:57:33.853Z,100994.79
